createdAt,value
2019-02-19T00:01:00.275Z,29.02
2019-02-19T00:03:28.755Z,28.62
2019-02-19T00:05:57.233Z,29.10
2019-02-19T00:08:27.422Z,31.50
2019-02-19T00:10:55.864Z,29.70
2019-02-19T00:13:24.387Z,32.05
2019-02-19T00:15:55.487Z,33.35
2019-02-19T00:18:23.978Z,31.57
2019-02-19T00:20:52.434Z,32.03
2019-02-19T00:23:20.858Z,30.57
2019-02-19T00:25:49.360Z,29.85
2019-02-19T00:28:17.732Z,29.02
2019-02-19T00:30:46.178Z,28.20
2019-02-19T00:33:14.587Z,27.22
2019-02-19T00:35:44.370Z,28.55
2019-02-19T00:38:12.780Z,28.30
2019-02-19T00:40:41.223Z,25.45
2019-02-19T00:43:09.723Z,27.22
2019-02-19T00:45:38.199Z,26.17
2019-02-19T00:48:06.575Z,24.55
2019-02-19T00:50:36.804Z,25.12
2019-02-19T00:53:05.192Z,27.30
2019-02-19T00:55:33.892Z,27.13
2019-02-19T00:58:02.267Z,26.30
2019-02-19T01:00:38.396Z,27.05
2019-02-19T01:03:06.982Z,25.40
2019-02-19T01:05:35.519Z,25.05
2019-02-19T01:08:04.178Z,25.10
2019-02-19T01:10:34.030Z,27.55
2019-02-19T01:13:02.426Z,23.83
2019-02-19T01:15:31.221Z,24.15
2019-02-19T01:17:59.622Z,24.60
2019-02-19T01:20:28.067Z,24.82
2019-02-19T01:22:56.542Z,24.90
2019-02-19T01:25:25.743Z,23.20
2019-02-19T01:27:54.824Z,24.20
2019-02-19T01:30:23.351Z,21.87
2019-02-19T01:32:51.736Z,22.37
2019-02-19T01:35:20.228Z,23.27
2019-02-19T01:37:48.614Z,23.12
2019-02-19T01:40:17.009Z,23.00
2019-02-19T01:42:45.513Z,22.07
2019-02-19T01:45:13.900Z,22.13
2019-02-19T01:47:42.684Z,23.15
2019-02-19T01:50:11.280Z,22.15
2019-02-19T01:52:39.774Z,21.70
2019-02-19T01:55:08.289Z,22.15
2019-02-19T01:57:36.664Z,22.73
2019-02-19T02:00:08.149Z,21.90
2019-02-19T02:02:37.583Z,22.87
2019-02-19T02:05:06.059Z,21.15
2019-02-19T02:07:34.575Z,20.97
2019-02-19T02:10:03.857Z,21.35
2019-02-19T02:12:34.162Z,20.88
2019-02-19T02:15:02.670Z,19.92
2019-02-19T02:17:32.259Z,19.73
2019-02-19T02:20:00.681Z,19.30
2019-02-19T02:22:29.097Z,20.25
2019-02-19T02:24:57.471Z,18.15
2019-02-19T02:27:25.878Z,18.70
2019-02-19T02:29:54.365Z,20.60
2019-02-19T02:32:23.261Z,19.95
2019-02-19T02:34:51.792Z,21.10
2019-02-19T02:37:20.268Z,18.67
2019-02-19T02:39:48.767Z,18.95
2019-02-19T02:42:17.271Z,18.52
2019-02-19T02:44:46.886Z,18.52
2019-02-19T02:47:15.375Z,18.92
2019-02-19T02:49:43.744Z,17.65
2019-02-19T02:52:13.842Z,19.30
2019-02-19T02:54:44.020Z,20.62
2019-02-19T02:57:14.224Z,18.98
2019-02-19T02:59:44.433Z,19.50
2019-02-19T03:02:14.614Z,17.42
2019-02-19T03:04:44.817Z,17.25
2019-02-19T03:07:20.766Z,20.17
2019-02-19T03:09:49.177Z,17.30
2019-02-19T03:12:17.653Z,17.98
2019-02-19T03:14:46.028Z,16.02
2019-02-19T03:17:14.430Z,17.45
2019-02-19T03:19:43.035Z,15.08
2019-02-19T03:22:11.539Z,15.75
2019-02-19T03:24:40.012Z,15.70
2019-02-19T03:27:08.503Z,15.13
2019-02-19T03:29:37.009Z,14.50
2019-02-19T03:32:05.540Z,15.75
2019-02-19T03:34:34.044Z,13.90
2019-02-19T03:37:02.522Z,14.53
2019-02-19T03:39:31.023Z,15.45
2019-02-19T03:41:59.800Z,15.00
2019-02-19T03:44:29.478Z,13.45
2019-02-19T03:46:57.987Z,12.73
2019-02-19T03:49:26.362Z,13.20
2019-02-19T03:51:54.880Z,12.45
2019-02-19T03:54:23.895Z,13.95
2019-02-19T03:56:53.376Z,14.40
2019-02-19T03:59:29.032Z,13.48
2019-02-19T04:01:57.601Z,13.03
2019-02-19T04:04:26.015Z,12.95
2019-02-19T04:06:54.405Z,12.75
2019-02-19T04:09:22.817Z,11.93
2019-02-19T04:11:51.312Z,10.85
2019-02-19T04:14:21.505Z,12.95
2019-02-19T04:16:49.880Z,12.78
2019-02-19T04:19:18.281Z,11.20
2019-02-19T04:21:46.736Z,12.33
2019-02-19T04:24:15.121Z,11.48
2019-02-19T04:26:43.806Z,13.48
2019-02-19T04:29:12.231Z,11.90
2019-02-19T04:31:40.939Z,11.60
2019-02-19T04:34:09.328Z,14.03
2019-02-19T04:36:37.826Z,12.70
2019-02-19T04:39:06.506Z,11.88
2019-02-19T04:41:35.230Z,11.73
2019-02-19T04:44:03.707Z,12.45
2019-02-19T04:46:32.101Z,13.15
2019-02-19T04:49:00.484Z,14.63
2019-02-19T04:51:29.039Z,13.78
2019-02-19T04:53:57.457Z,14.53
2019-02-19T04:56:25.926Z,13.60
2019-02-19T04:58:54.309Z,13.48
2019-02-19T05:01:22.905Z,13.98
2019-02-19T05:03:51.587Z,14.30
2019-02-19T05:06:20.116Z,14.40
2019-02-19T05:08:48.595Z,13.40
2019-02-19T05:11:17.144Z,12.98
2019-02-19T05:13:45.653Z,14.45
2019-02-19T05:16:14.023Z,13.98
2019-02-19T05:18:42.418Z,14.43
2019-02-19T05:21:10.970Z,16.00
2019-02-19T05:23:39.480Z,16.00
2019-02-19T05:26:07.990Z,15.13
2019-02-19T05:28:36.559Z,14.87
2019-02-19T05:31:06.812Z,16.20
2019-02-19T05:33:35.193Z,14.47
2019-02-19T05:36:03.833Z,15.53
2019-02-19T05:38:32.518Z,16.17
2019-02-19T05:41:02.546Z,15.20
2019-02-19T05:43:31.455Z,16.25
2019-02-19T05:45:59.953Z,15.75
2019-02-19T05:48:28.393Z,14.83
2019-02-19T05:50:58.066Z,17.07
2019-02-19T05:53:26.486Z,16.75
2019-02-19T05:55:54.968Z,15.75
2019-02-19T05:58:23.374Z,15.43
2019-02-19T06:00:51.998Z,19.62
2019-02-19T06:03:20.383Z,21.55
2019-02-19T06:05:48.882Z,17.65
2019-02-19T06:08:17.359Z,18.98
2019-02-19T06:10:46.463Z,17.00
2019-02-19T06:13:16.467Z,18.55
2019-02-19T06:15:44.963Z,17.55
2019-02-19T06:18:14.877Z,18.25
2019-02-19T06:20:43.625Z,16.70
2019-02-19T06:23:12.165Z,19.00
2019-02-19T06:25:40.950Z,16.75
2019-02-19T06:28:11.136Z,16.37
2019-02-19T06:30:39.656Z,18.42
2019-02-19T06:33:08.150Z,18.62
2019-02-19T06:35:36.732Z,16.82
2019-02-19T06:38:06.135Z,16.95
2019-02-19T06:40:35.196Z,17.67
2019-02-19T06:43:03.601Z,18.07
2019-02-19T06:45:31.988Z,19.50
2019-02-19T06:48:00.395Z,24.02
2019-02-19T06:50:28.986Z,20.90
2019-02-19T06:52:57.368Z,20.12
2019-02-19T06:55:25.749Z,20.85
2019-02-19T06:57:54.137Z,21.17
2019-02-19T07:00:29.803Z,19.40
2019-02-19T07:03:03.439Z,20.48
2019-02-19T07:05:31.863Z,21.15
2019-02-19T07:08:02.101Z,25.35
2019-02-19T07:10:30.703Z,27.48
2019-02-19T07:13:00.923Z,25.17
2019-02-19T07:15:30.901Z,26.20
2019-02-19T07:17:59.309Z,25.95
2019-02-19T07:20:27.767Z,24.92
2019-02-19T07:22:56.281Z,27.45
2019-02-19T07:25:24.913Z,25.72
2019-02-19T07:27:53.294Z,25.20
2019-02-19T07:30:21.688Z,26.07
2019-02-19T07:32:50.184Z,25.45
2019-02-19T07:35:18.651Z,25.62
2019-02-19T07:37:47.015Z,23.83
2019-02-19T07:40:17.356Z,24.87
2019-02-19T07:42:45.874Z,23.67
2019-02-19T07:45:15.650Z,25.90
2019-02-19T07:47:44.558Z,25.68
2019-02-19T07:50:14.748Z,24.60
2019-02-19T07:52:43.455Z,24.77
2019-02-19T07:55:13.651Z,24.15
2019-02-19T07:57:43.894Z,25.20
2019-02-19T08:00:13.854Z,24.60
2019-02-19T08:02:42.475Z,25.45
2019-02-19T08:05:11.009Z,22.20
2019-02-19T08:07:39.423Z,26.95
2019-02-19T08:10:09.561Z,23.38
2019-02-19T08:12:38.280Z,24.27
2019-02-19T08:15:07.167Z,23.45
2019-02-19T08:17:35.673Z,25.12
2019-02-19T08:20:13.456Z,22.65
2019-02-19T08:22:36.432Z,21.30
2019-02-19T08:25:06.966Z,22.60
2019-02-19T08:27:35.450Z,22.75
2019-02-19T08:30:04.188Z,23.75
2019-02-19T08:32:34.395Z,22.50
2019-02-19T08:35:02.881Z,22.35
2019-02-19T08:37:31.472Z,21.80
2019-02-19T08:39:59.954Z,22.60
2019-02-19T08:42:30.235Z,22.50
2019-02-19T08:44:58.797Z,20.25
2019-02-19T08:47:27.275Z,21.12
2019-02-19T08:49:55.771Z,21.30
2019-02-19T08:52:24.413Z,19.60
2019-02-19T08:54:53.027Z,20.60
2019-02-19T08:57:21.511Z,21.47
2019-02-19T08:59:51.705Z,18.00
2019-02-19T09:02:20.178Z,20.20
2019-02-19T09:04:48.658Z,16.73
2019-02-19T09:07:18.064Z,16.63
2019-02-19T09:09:46.864Z,17.60
2019-02-19T09:12:15.479Z,21.77
2019-02-19T09:14:45.667Z,19.07
2019-02-19T09:17:14.152Z,20.10
2019-02-19T09:19:42.783Z,19.10
2019-02-19T09:22:13.089Z,19.30
2019-02-19T09:24:41.735Z,18.83
2019-02-19T09:27:10.254Z,17.77
2019-02-19T09:29:38.664Z,17.30
2019-02-19T09:32:07.470Z,19.30
2019-02-19T09:34:35.910Z,18.97
2019-02-19T09:37:04.709Z,18.20
2019-02-19T09:39:33.121Z,19.77
2019-02-19T09:42:04.529Z,20.73
2019-02-19T09:44:33.261Z,21.30
2019-02-19T09:47:03.742Z,19.93
2019-02-19T09:49:32.266Z,20.03
2019-02-19T09:52:02.461Z,20.67
2019-02-19T09:54:31.333Z,19.40
2019-02-19T09:56:59.903Z,20.20
2019-02-19T09:59:30.181Z,21.60
2019-02-19T10:01:59.201Z,18.83
2019-02-19T10:04:27.941Z,21.10
2019-02-19T10:06:56.352Z,21.10
2019-02-19T10:09:26.558Z,19.87
2019-02-19T10:11:55.156Z,18.80
2019-02-19T10:14:25.365Z,19.27
2019-02-19T10:16:55.564Z,18.57
2019-02-19T10:19:25.999Z,20.93
2019-02-19T10:21:54.815Z,18.47
2019-02-19T10:24:23.407Z,19.60
2019-02-19T10:26:51.805Z,18.40
2019-02-19T10:29:20.409Z,19.87
2019-02-19T10:31:49.219Z,20.57
2019-02-19T10:34:17.625Z,19.97
2019-02-19T10:36:46.326Z,19.20
2019-02-19T10:39:15.039Z,20.70
2019-02-19T10:41:43.505Z,20.97
2019-02-19T10:44:11.915Z,21.30
2019-02-19T10:46:40.411Z,19.33
2019-02-19T10:49:08.912Z,20.27
2019-02-19T10:51:37.413Z,21.70
2019-02-19T10:54:06.119Z,20.57
2019-02-19T10:56:34.723Z,19.67
2019-02-19T10:59:03.206Z,20.60
2019-02-19T11:01:31.748Z,21.30
2019-02-19T11:04:00.249Z,19.63
2019-02-19T11:06:29.399Z,19.83
2019-02-19T11:08:58.090Z,19.43
2019-02-19T11:11:26.679Z,20.17
2019-02-19T11:13:56.163Z,18.77
2019-02-19T11:16:25.444Z,17.93
2019-02-19T11:18:53.821Z,19.60
2019-02-19T11:21:22.339Z,18.30
2019-02-19T11:23:52.551Z,18.20
2019-02-19T11:26:21.068Z,19.67
2019-02-19T11:28:51.244Z,18.80
2019-02-19T11:31:19.680Z,20.10
2019-02-19T11:33:48.194Z,19.70
2019-02-19T11:36:16.708Z,19.07
2019-02-19T11:38:45.097Z,17.80
2019-02-19T11:41:13.877Z,18.10
2019-02-19T11:43:42.386Z,15.27
2019-02-19T11:46:11.054Z,16.57
2019-02-19T11:48:40.007Z,17.50
2019-02-19T11:51:09.084Z,17.50
2019-02-19T11:53:37.757Z,15.97
2019-02-19T11:56:06.458Z,16.83
2019-02-19T11:58:35.310Z,18.10
2019-02-19T12:01:04.627Z,20.23
2019-02-19T12:03:33.109Z,17.20
2019-02-19T12:06:01.821Z,18.20
2019-02-19T12:08:38.670Z,17.43
2019-02-19T12:11:01.057Z,19.97
2019-02-19T12:13:29.766Z,18.43
2019-02-19T12:15:58.391Z,18.63
2019-02-19T12:18:27.793Z,19.87
2019-02-19T12:20:56.915Z,19.70
2019-02-19T12:23:25.418Z,20.30
2019-02-19T12:25:55.652Z,19.20
2019-02-19T12:28:24.063Z,18.63
2019-02-19T12:30:54.270Z,21.37
2019-02-19T12:33:22.848Z,18.10
2019-02-19T12:35:51.236Z,19.43
2019-02-19T12:38:20.004Z,20.67
2019-02-19T12:40:48.656Z,18.90
2019-02-19T12:43:17.381Z,18.73
2019-02-19T12:45:47.598Z,20.57
2019-02-19T12:48:16.715Z,19.90
2019-02-19T12:50:45.401Z,19.57
2019-02-19T12:53:14.354Z,20.23
2019-02-19T12:55:44.935Z,17.90
2019-02-19T12:58:14.193Z,19.13
2019-02-19T13:00:43.433Z,16.97
2019-02-19T13:03:12.246Z,17.73
2019-02-19T13:05:41.665Z,19.10
2019-02-19T13:08:10.656Z,17.40
2019-02-19T13:10:39.851Z,17.90
2019-02-19T13:13:10.049Z,17.93
2019-02-19T13:15:38.815Z,17.40
2019-02-19T13:18:07.761Z,16.97
2019-02-19T13:20:36.576Z,16.50
2019-02-19T13:23:05.060Z,14.80
2019-02-19T13:25:33.933Z,16.57
2019-02-19T13:28:02.676Z,16.27
2019-02-19T13:30:32.300Z,16.27
2019-02-19T13:33:01.074Z,13.90
2019-02-19T13:35:30.000Z,16.73
2019-02-19T13:37:58.781Z,16.23
2019-02-19T13:40:27.648Z,14.47
2019-02-19T13:42:56.327Z,15.00
2019-02-19T13:45:24.918Z,15.37
2019-02-19T13:47:53.783Z,14.10
2019-02-19T13:50:24.747Z,14.00
2019-02-19T13:53:22.254Z,13.87
2019-02-19T13:55:55.238Z,14.93
2019-02-19T13:58:23.703Z,14.67
2019-02-19T14:00:52.347Z,14.53
2019-02-19T14:03:21.087Z,13.60
2019-02-19T14:05:49.718Z,14.03
2019-02-19T14:08:19.906Z,13.40
2019-02-19T14:10:49.379Z,14.23
2019-02-19T14:13:18.100Z,11.27
2019-02-19T14:15:55.275Z,13.30
2019-02-19T14:18:46.534Z,12.77
2019-02-19T14:21:33.189Z,13.63
2019-02-19T14:24:25.845Z,13.73
2019-02-19T14:27:29.629Z,12.60
2019-02-19T14:30:16.576Z,12.93
2019-02-19T14:33:04.599Z,10.80
2019-02-19T14:35:51.874Z,12.67
2019-02-19T14:38:38.650Z,11.93
2019-02-19T14:41:25.783Z,11.47
2019-02-19T14:44:32.447Z,11.40
2019-02-19T14:47:35.702Z,10.67
2019-02-19T14:50:24.402Z,10.60
2019-02-19T14:53:12.679Z,10.40
2019-02-19T14:56:04.173Z,11.03
2019-02-19T14:59:12.710Z,10.90
2019-02-19T15:02:07.066Z,9.17
2019-02-19T15:05:02.737Z,9.40
2019-02-19T15:07:51.207Z,9.70
2019-02-19T15:10:54.831Z,9.60
2019-02-19T15:13:49.192Z,8.93
2019-02-19T15:16:54.111Z,9.80
2019-02-19T15:19:39.081Z,8.33
2019-02-19T15:22:38.857Z,8.93
2019-02-19T15:25:26.020Z,9.70
2019-02-19T15:28:06.379Z,7.50
2019-02-19T15:30:48.525Z,8.07
2019-02-19T15:33:54.773Z,8.90
2019-02-19T15:36:43.295Z,7.77
2019-02-19T15:39:31.772Z,8.10
2019-02-19T15:42:27.799Z,8.13
2019-02-19T15:45:14.518Z,8.03
2019-02-19T15:48:06.750Z,8.80
2019-02-19T15:51:13.169Z,8.73
2019-02-19T15:54:01.230Z,9.67
2019-02-19T15:56:49.436Z,8.60
2019-02-19T15:59:47.231Z,10.50
2019-02-19T16:02:25.854Z,8.30
2019-02-19T16:05:09.789Z,9.70
2019-02-19T16:07:46.464Z,10.60
2019-02-19T16:10:24.200Z,9.73
2019-02-19T16:13:03.888Z,9.40
2019-02-19T16:15:55.384Z,9.77
2019-02-19T16:18:46.667Z,10.60
2019-02-19T16:21:47.120Z,10.23
2019-02-19T16:24:26.609Z,8.63
2019-02-19T16:27:14.747Z,10.13
2019-02-19T16:30:03.893Z,10.77
2019-02-19T16:32:52.372Z,9.50
2019-02-19T16:35:40.761Z,9.47
2019-02-19T16:38:27.652Z,8.80
2019-02-19T16:41:12.234Z,9.50
2019-02-19T16:44:03.279Z,9.77
2019-02-19T16:46:54.973Z,11.90
2019-02-19T16:49:37.834Z,12.77
2019-02-19T16:52:22.355Z,16.43
2019-02-19T16:55:25.701Z,19.07
2019-02-19T16:58:00.770Z,18.87
2019-02-19T17:00:51.392Z,20.50
2019-02-19T17:03:38.287Z,18.73
2019-02-19T17:06:25.457Z,17.57
2019-02-19T17:09:13.751Z,16.43
2019-02-19T17:12:02.659Z,16.70
2019-02-19T17:14:42.153Z,15.40
2019-02-19T17:17:28.790Z,15.87
2019-02-19T17:20:16.394Z,17.30
2019-02-19T17:22:45.298Z,16.37
2019-02-19T17:25:37.640Z,19.00
2019-02-19T17:28:31.446Z,16.83
2019-02-19T17:31:22.143Z,18.40
2019-02-19T17:34:10.523Z,18.33
2019-02-19T17:36:48.961Z,18.77
2019-02-19T17:39:29.082Z,16.00
2019-02-19T17:42:06.913Z,19.67
2019-02-19T17:44:48.836Z,18.30
2019-02-19T17:47:36.275Z,17.87
2019-02-19T17:50:25.334Z,20.10
2019-02-19T17:53:14.879Z,19.13
2019-02-19T17:56:08.895Z,19.40
2019-02-19T17:58:57.796Z,18.00
2019-02-19T18:01:33.679Z,18.83
2019-02-19T18:04:11.072Z,17.07
2019-02-19T18:06:55.226Z,17.70
2019-02-19T18:09:33.880Z,17.17
2019-02-19T18:12:08.867Z,19.00
2019-02-19T18:14:50.638Z,19.20
2019-02-19T18:17:38.882Z,19.07
2019-02-19T18:20:07.584Z,20.80
2019-02-19T18:22:36.113Z,19.00
2019-02-19T18:25:05.152Z,19.13
2019-02-19T18:27:33.909Z,21.17
2019-02-19T18:30:04.998Z,19.17
2019-02-19T18:32:36.394Z,19.60
2019-02-19T18:35:05.391Z,21.83
2019-02-19T18:37:33.935Z,20.53
2019-02-19T18:40:02.359Z,21.43
2019-02-19T18:42:31.134Z,21.50
2019-02-19T18:44:59.600Z,23.57
2019-02-19T18:47:28.394Z,23.87
2019-02-19T18:49:57.347Z,22.63
2019-02-19T18:52:25.856Z,20.80
2019-02-19T18:54:56.045Z,22.13
2019-02-19T18:57:24.619Z,19.90
2019-02-19T18:59:53.574Z,19.93
2019-02-19T19:02:22.687Z,19.40
2019-02-19T19:04:51.413Z,21.10
2019-02-19T19:07:20.820Z,20.03
2019-02-19T19:09:50.367Z,21.77
2019-02-19T19:12:18.944Z,21.37
2019-02-19T19:14:49.279Z,20.70
2019-02-19T19:17:19.641Z,19.93
2019-02-19T19:19:48.228Z,18.10
2019-02-19T19:22:19.534Z,19.70
2019-02-19T19:24:48.341Z,17.87
2019-02-19T19:27:17.047Z,20.30
2019-02-19T19:29:45.598Z,17.60
2019-02-19T19:32:14.180Z,17.80
2019-02-19T19:34:43.121Z,16.80
2019-02-19T19:37:11.855Z,16.03
2019-02-19T19:39:40.407Z,18.47
2019-02-19T19:42:10.190Z,17.90
2019-02-19T19:44:38.579Z,17.03
2019-02-19T19:47:07.093Z,18.03
2019-02-19T19:49:35.591Z,17.87
2019-02-19T19:52:05.587Z,17.90
2019-02-19T19:54:34.499Z,19.87
2019-02-19T19:57:04.451Z,18.90
2019-02-19T19:59:37.081Z,18.87
2019-02-19T20:02:06.681Z,19.40
2019-02-19T20:04:35.536Z,18.67
2019-02-19T20:07:04.143Z,19.90
2019-02-19T20:09:33.104Z,21.10
2019-02-19T20:12:02.437Z,23.80
2019-02-19T20:14:31.424Z,21.10
2019-02-19T20:17:00.155Z,24.20
2019-02-19T20:19:29.137Z,22.57
2019-02-19T20:21:59.792Z,23.47
2019-02-19T20:24:30.409Z,24.80
2019-02-19T20:26:59.120Z,24.80
2019-02-19T20:29:27.626Z,27.50
2019-02-19T20:31:56.650Z,25.83
2019-02-19T20:34:25.874Z,26.47
2019-02-19T20:36:54.361Z,25.07
2019-02-19T20:39:23.098Z,25.63
2019-02-19T20:41:53.699Z,26.50
2019-02-19T20:44:22.414Z,26.90
2019-02-19T20:46:51.273Z,25.17
2019-02-19T20:49:19.669Z,27.00
2019-02-19T20:51:48.317Z,27.40
2019-02-19T20:54:18.838Z,30.20
2019-02-19T20:56:47.303Z,28.50
2019-02-19T20:59:16.257Z,32.50
2019-02-19T21:01:44.803Z,36.17
2019-02-19T21:04:13.475Z,34.70
2019-02-19T21:06:41.855Z,35.73
2019-02-19T21:09:10.352Z,35.23
2019-02-19T21:11:39.199Z,39.10
2019-02-19T21:14:07.713Z,37.98
2019-02-19T21:16:37.771Z,41.10
2019-02-19T21:19:06.262Z,38.00
2019-02-19T21:21:44.586Z,35.93
2019-02-19T21:24:06.606Z,34.63
2019-02-19T21:26:35.215Z,31.80
2019-02-19T21:29:03.815Z,34.70
2019-02-19T21:31:32.297Z,32.23
2019-02-19T21:34:02.488Z,31.20
2019-02-19T21:36:31.197Z,31.05
2019-02-19T21:39:00.198Z,28.83
2019-02-19T21:41:28.872Z,30.60
2019-02-19T21:43:57.274Z,30.60
2019-02-19T21:46:26.881Z,32.10
2019-02-19T21:48:55.418Z,29.43
2019-02-19T21:51:23.923Z,30.33
2019-02-19T21:53:52.463Z,34.87
2019-02-19T21:56:21.150Z,34.67
2019-02-19T21:58:49.550Z,34.90
2019-02-19T22:01:18.140Z,40.00
2019-02-19T22:03:48.377Z,34.10
2019-02-19T22:06:17.097Z,35.20
2019-02-19T22:08:45.736Z,32.73
2019-02-19T22:11:16.095Z,34.83
2019-02-19T22:13:44.508Z,34.33
2019-02-19T22:16:12.888Z,31.37
2019-02-19T22:18:42.300Z,32.63
2019-02-19T22:21:18.644Z,29.50
2019-02-19T22:23:47.162Z,29.72
2019-02-19T22:26:15.848Z,27.45
2019-02-19T22:28:44.230Z,29.30
2019-02-19T22:31:14.563Z,30.32
2019-02-19T22:33:43.057Z,29.82
2019-02-19T22:36:11.455Z,29.63
2019-02-19T22:38:39.942Z,30.88
2019-02-19T22:41:09.562Z,32.50
2019-02-19T22:43:38.071Z,30.30
2019-02-19T22:46:06.566Z,28.40
2019-02-19T22:48:35.861Z,30.08
2019-02-19T22:51:04.435Z,32.30
2019-02-19T22:53:58.380Z,35.13
2019-02-19T22:56:29.689Z,36.33
2019-02-19T22:58:58.214Z,34.25
2019-02-19T23:01:31.417Z,33.70
2019-02-19T23:04:00.879Z,31.50
2019-02-19T23:06:29.395Z,32.93
2019-02-19T23:08:57.983Z,30.20
2019-02-19T23:11:26.414Z,31.20
2019-02-19T23:13:55.017Z,32.78
2019-02-19T23:16:23.602Z,29.90
2019-02-19T23:18:52.125Z,30.27
2019-02-19T23:21:20.728Z,31.63
2019-02-19T23:23:49.219Z,31.63
2019-02-19T23:26:17.830Z,29.33
2019-02-19T23:28:46.228Z,29.67
2019-02-19T23:31:14.696Z,31.40
2019-02-19T23:33:43.098Z,28.95
2019-02-19T23:36:31.097Z,29.10
2019-02-19T23:38:59.481Z,28.98
2019-02-19T23:41:27.961Z,28.73
2019-02-19T23:43:56.388Z,27.50
2019-02-19T23:46:24.800Z,27.13
2019-02-19T23:48:53.306Z,26.77
2019-02-19T23:51:21.752Z,27.32
2019-02-19T23:53:50.256Z,24.77
2019-02-19T23:56:18.644Z,27.98
2019-02-19T23:58:47.023Z,25.77
